sensor_id;sensor_type;location;lat;lon;timestamp;P1;durP1;ratioP1;P2;durP2;ratioP2
2840;SDS011;53423;49.224;12.074;2023-04-28T00:00:51;6.37;;;5.77;;
2840;SDS011;53423;49.224;12.074;2023-04-28T00:03:20;7.53;;;6.20;;
2840;SDS011;53423;49.224;12.074;2023-04-28T00:05:49;6.37;;;5.77;;
2840;SDS011;53423;49.224;12.074;2023-04-28T00:08:19;6.70;;;6.07;;
2840;SDS011;53423;49.224;12.074;2023-04-28T00:10:48;6.87;;;6.10;;
2840;SDS011;53423;49.224;12.074;2023-04-28T00:13:16;7.20;;;6.53;;
2840;SDS011;53423;49.224;12.074;2023-04-28T00:15:44;6.40;;;5.80;;
2840;SDS011;53423;49.224;12.074;2023-04-28T00:18:12;6.20;;;5.60;;
2840;SDS011;53423;49.224;12.074;2023-04-28T00:20:41;7.23;;;5.80;;
2840;SDS011;53423;49.224;12.074;2023-04-28T00:23:09;5.97;;;5.47;;
2840;SDS011;53423;49.224;12.074;2023-04-28T00:25:37;7.20;;;5.60;;
2840;SDS011;53423;49.224;12.074;2023-04-28T00:28:05;5.63;;;5.23;;
2840;SDS011;53423;49.224;12.074;2023-04-28T00:30:33;6.97;;;6.33;;
2840;SDS011;53423;49.224;12.074;2023-04-28T00:33:01;6.63;;;6.03;;
2840;SDS011;53423;49.224;12.074;2023-04-28T00:35:29;7.27;;;6.57;;
2840;SDS011;53423;49.224;12.074;2023-04-28T00:37:58;6.10;;;5.53;;
2840;SDS011;53423;49.224;12.074;2023-04-28T00:40:31;6.20;;;5.70;;
2840;SDS011;53423;49.224;12.074;2023-04-28T00:43:00;6.20;;;5.70;;
2840;SDS011;53423;49.224;12.074;2023-04-28T00:45:28;8.93;;;6.63;;
2840;SDS011;53423;49.224;12.074;2023-04-28T00:47:56;7.37;;;6.67;;
2840;SDS011;53423;49.224;12.074;2023-04-28T00:50:25;6.43;;;5.83;;
2840;SDS011;53423;49.224;12.074;2023-04-28T00:52:53;6.77;;;6.13;;
2840;SDS011;53423;49.224;12.074;2023-04-28T00:55:22;7.83;;;7.13;;
2840;SDS011;53423;49.224;12.074;2023-04-28T00:57:53;6.37;;;5.87;;
2840;SDS011;53423;49.224;12.074;2023-04-28T01:00:22;7.37;;;6.77;;
2840;SDS011;53423;49.224;12.074;2023-04-28T01:02:50;7.27;;;6.60;;
2840;SDS011;53423;49.224;12.074;2023-04-28T01:05:20;7.50;;;6.87;;
2840;SDS011;53423;49.224;12.074;2023-04-28T01:07:49;7.20;;;6.60;;
2840;SDS011;53423;49.224;12.074;2023-04-28T01:10:17;8.00;;;7.03;;
2840;SDS011;53423;49.224;12.074;2023-04-28T01:12:46;8.60;;;7.70;;
2840;SDS011;53423;49.224;12.074;2023-04-28T01:15:15;8.30;;;7.50;;
2840;SDS011;53423;49.224;12.074;2023-04-28T01:17:44;7.30;;;6.60;;
2840;SDS011;53423;49.224;12.074;2023-04-28T01:20:13;7.53;;;6.80;;
2840;SDS011;53423;49.224;12.074;2023-04-28T01:22:40;7.10;;;6.53;;
2840;SDS011;53423;49.224;12.074;2023-04-28T01:25:10;7.13;;;6.43;;
2840;SDS011;53423;49.224;12.074;2023-04-28T01:27:38;6.70;;;6.20;;
2840;SDS011;53423;49.224;12.074;2023-04-28T01:30:06;8.33;;;7.53;;
2840;SDS011;53423;49.224;12.074;2023-04-28T01:32:35;7.00;;;6.40;;
2840;SDS011;53423;49.224;12.074;2023-04-28T01:35:03;8.20;;;7.40;;
2840;SDS011;53423;49.224;12.074;2023-04-28T01:37:31;7.33;;;6.63;;
2840;SDS011;53423;49.224;12.074;2023-04-28T01:40:00;7.97;;;7.27;;
2840;SDS011;53423;49.224;12.074;2023-04-28T01:42:30;8.03;;;7.20;;
2840;SDS011;53423;49.224;12.074;2023-04-28T01:44:58;7.40;;;6.70;;
2840;SDS011;53423;49.224;12.074;2023-04-28T01:47:26;7.47;;;6.60;;
2840;SDS011;53423;49.224;12.074;2023-04-28T01:49:54;7.57;;;6.87;;
2840;SDS011;53423;49.224;12.074;2023-04-28T01:52:22;6.87;;;6.27;;
2840;SDS011;53423;49.224;12.074;2023-04-28T01:58:14;7.23;;;6.53;;
2840;SDS011;53423;49.224;12.074;2023-04-28T02:00:42;6.97;;;6.43;;
2840;SDS011;53423;49.224;12.074;2023-04-28T02:03:11;8.40;;;6.20;;
2840;SDS011;53423;49.224;12.074;2023-04-28T02:05:39;7.63;;;6.93;;
2840;SDS011;53423;49.224;12.074;2023-04-28T02:08:06;7.57;;;6.90;;
2840;SDS011;53423;49.224;12.074;2023-04-28T02:10:35;8.50;;;7.70;;
2840;SDS011;53423;49.224;12.074;2023-04-28T02:13:03;7.70;;;6.90;;
2840;SDS011;53423;49.224;12.074;2023-04-28T02:15:32;7.50;;;6.90;;
2840;SDS011;53423;49.224;12.074;2023-04-28T02:18:01;7.40;;;6.73;;
2840;SDS011;53423;49.224;12.074;2023-04-28T02:20:29;8.50;;;7.70;;
2840;SDS011;53423;49.224;12.074;2023-04-28T02:22:58;7.83;;;7.03;;
2840;SDS011;53423;49.224;12.074;2023-04-28T02:25:26;7.40;;;6.70;;
2840;SDS011;53423;49.224;12.074;2023-04-28T02:27:54;8.00;;;7.30;;
2840;SDS011;53423;49.224;12.074;2023-04-28T02:30:22;7.70;;;7.10;;
2840;SDS011;53423;49.224;12.074;2023-04-28T02:32:51;7.93;;;7.20;;
2840;SDS011;53423;49.224;12.074;2023-04-28T02:35:19;7.93;;;7.17;;
2840;SDS011;53423;49.224;12.074;2023-04-28T02:37:47;7.73;;;6.93;;
2840;SDS011;53423;49.224;12.074;2023-04-28T02:40:16;8.00;;;7.20;;
2840;SDS011;53423;49.224;12.074;2023-04-28T02:42:44;7.07;;;6.47;;
2840;SDS011;53423;49.224;12.074;2023-04-28T02:45:12;7.73;;;6.93;;
2840;SDS011;53423;49.224;12.074;2023-04-28T02:47:40;6.97;;;6.37;;
2840;SDS011;53423;49.224;12.074;2023-04-28T02:50:09;6.87;;;6.27;;
2840;SDS011;53423;49.224;12.074;2023-04-28T02:52:37;7.40;;;6.53;;
2840;SDS011;53423;49.224;12.074;2023-04-28T02:55:05;7.93;;;7.23;;
2840;SDS011;53423;49.224;12.074;2023-04-28T02:57:34;7.60;;;6.90;;
2840;SDS011;53423;49.224;12.074;2023-04-28T03:00:02;8.03;;;6.70;;
2840;SDS011;53423;49.224;12.074;2023-04-28T03:02:30;8.00;;;7.30;;
2840;SDS011;53423;49.224;12.074;2023-04-28T03:04:58;10.37;;;7.43;;
2840;SDS011;53423;49.224;12.074;2023-04-28T03:07:28;7.30;;;6.70;;
2840;SDS011;53423;49.224;12.074;2023-04-28T03:09:56;8.87;;;6.47;;
2840;SDS011;53423;49.224;12.074;2023-04-28T03:12:24;7.50;;;6.80;;
2840;SDS011;53423;49.224;12.074;2023-04-28T03:14:52;8.07;;;7.27;;
2840;SDS011;53423;49.224;12.074;2023-04-28T03:17:19;6.60;;;6.10;;
2840;SDS011;53423;49.224;12.074;2023-04-28T03:19:48;7.80;;;7.00;;
2840;SDS011;53423;49.224;12.074;2023-04-28T03:22:15;8.33;;;6.60;;
2840;SDS011;53423;49.224;12.074;2023-04-28T03:24:45;7.33;;;6.73;;
2840;SDS011;53423;49.224;12.074;2023-04-28T03:27:13;8.23;;;7.53;;
2840;SDS011;53423;49.224;12.074;2023-04-28T03:29:41;7.67;;;6.97;;
2840;SDS011;53423;49.224;12.074;2023-04-28T03:32:08;7.23;;;6.53;;
2840;SDS011;53423;49.224;12.074;2023-04-28T03:34:38;7.27;;;6.60;;
2840;SDS011;53423;49.224;12.074;2023-04-28T03:37:06;7.77;;;6.97;;
2840;SDS011;53423;49.224;12.074;2023-04-28T03:39:33;7.17;;;6.50;;
2840;SDS011;53423;49.224;12.074;2023-04-28T03:42:03;7.63;;;6.90;;
2840;SDS011;53423;49.224;12.074;2023-04-28T03:44:31;9.83;;;8.83;;
2840;SDS011;53423;49.224;12.074;2023-04-28T03:46:59;9.13;;;8.33;;
2840;SDS011;53423;49.224;12.074;2023-04-28T03:49:27;8.37;;;7.67;;
2840;SDS011;53423;49.224;12.074;2023-04-28T03:51:55;8.03;;;7.27;;
2840;SDS011;53423;49.224;12.074;2023-04-28T03:54:23;8.30;;;7.60;;
2840;SDS011;53423;49.224;12.074;2023-04-28T03:56:51;8.20;;;7.40;;
2840;SDS011;53423;49.224;12.074;2023-04-28T03:59:20;7.77;;;7.07;;
2840;SDS011;53423;49.224;12.074;2023-04-28T04:01:48;8.17;;;7.17;;
2840;SDS011;53423;49.224;12.074;2023-04-28T04:04:16;7.97;;;7.17;;
2840;SDS011;53423;49.224;12.074;2023-04-28T04:06:45;8.20;;;7.40;;
2840;SDS011;53423;49.224;12.074;2023-04-28T04:09:13;7.97;;;7.17;;
2840;SDS011;53423;49.224;12.074;2023-04-28T04:11:41;8.40;;;7.60;;
2840;SDS011;53423;49.224;12.074;2023-04-28T04:14:09;7.90;;;7.10;;
2840;SDS011;53423;49.224;12.074;2023-04-28T04:16:38;8.60;;;7.80;;
2840;SDS011;53423;49.224;12.074;2023-04-28T04:19:06;9.23;;;8.40;;
2840;SDS011;53423;49.224;12.074;2023-04-28T04:21:34;12.90;;;11.50;;
2840;SDS011;53423;49.224;12.074;2023-04-28T04:24:02;13.00;;;11.73;;
2840;SDS011;53423;49.224;12.074;2023-04-28T04:26:30;13.77;;;12.37;;
2840;SDS011;53423;49.224;12.074;2023-04-28T04:28:58;11.70;;;10.50;;
2840;SDS011;53423;49.224;12.074;2023-04-28T04:31:26;11.97;;;9.77;;
2840;SDS011;53423;49.224;12.074;2023-04-28T04:33:55;10.50;;;9.40;;
2840;SDS011;53423;49.224;12.074;2023-04-28T04:36:23;9.60;;;8.60;;
2840;SDS011;53423;49.224;12.074;2023-04-28T04:38:51;10.07;;;8.33;;
2840;SDS011;53423;49.224;12.074;2023-04-28T04:41:20;9.70;;;8.50;;
2840;SDS011;53423;49.224;12.074;2023-04-28T04:43:48;10.73;;;8.83;;
2840;SDS011;53423;49.224;12.074;2023-04-28T04:46:16;14.13;;;9.00;;
2840;SDS011;53423;49.224;12.074;2023-04-28T04:48:44;12.17;;;8.87;;
2840;SDS011;53423;49.224;12.074;2023-04-28T04:51:14;10.13;;;8.63;;
2840;SDS011;53423;49.224;12.074;2023-04-28T04:53:41;9.13;;;8.13;;
2840;SDS011;53423;49.224;12.074;2023-04-28T04:56:09;9.30;;;8.40;;
2840;SDS011;53423;49.224;12.074;2023-04-28T04:58:37;10.60;;;7.77;;
2840;SDS011;53423;49.224;12.074;2023-04-28T05:01:05;8.67;;;7.87;;
2840;SDS011;53423;49.224;12.074;2023-04-28T05:03:34;9.27;;;8.17;;
2840;SDS011;53423;49.224;12.074;2023-04-28T05:06:02;10.23;;;7.90;;
2840;SDS011;53423;49.224;12.074;2023-04-28T05:08:32;13.93;;;8.73;;
2840;SDS011;53423;49.224;12.074;2023-04-28T05:11:00;8.60;;;7.67;;
2840;SDS011;53423;49.224;12.074;2023-04-28T05:13:27;8.67;;;7.80;;
2840;SDS011;53423;49.224;12.074;2023-04-28T05:15:55;9.03;;;8.10;;
2840;SDS011;53423;49.224;12.074;2023-04-28T05:18:23;8.53;;;7.60;;
2840;SDS011;53423;49.224;12.074;2023-04-28T05:20:52;11.63;;;8.37;;
2840;SDS011;53423;49.224;12.074;2023-04-28T05:23:19;9.87;;;8.80;;
2840;SDS011;53423;49.224;12.074;2023-04-28T05:25:49;10.43;;;8.33;;
2840;SDS011;53423;49.224;12.074;2023-04-28T05:28:17;11.27;;;8.87;;
2840;SDS011;53423;49.224;12.074;2023-04-28T05:30:47;12.50;;;8.90;;
2840;SDS011;53423;49.224;12.074;2023-04-28T05:33:15;10.63;;;8.50;;
2840;SDS011;53423;49.224;12.074;2023-04-28T05:35:43;13.60;;;9.67;;
2840;SDS011;53423;49.224;12.074;2023-04-28T05:38:11;12.80;;;8.57;;
2840;SDS011;53423;49.224;12.074;2023-04-28T05:40:39;11.03;;;8.20;;
2840;SDS011;53423;49.224;12.074;2023-04-28T05:43:08;10.70;;;9.10;;
2840;SDS011;53423;49.224;12.074;2023-04-28T05:45:36;10.57;;;8.60;;
2840;SDS011;53423;49.224;12.074;2023-04-28T05:48:04;10.37;;;7.47;;
2840;SDS011;53423;49.224;12.074;2023-04-28T05:50:32;10.00;;;7.87;;
2840;SDS011;53423;49.224;12.074;2023-04-28T05:53:04;13.27;;;8.23;;
2840;SDS011;53423;49.224;12.074;2023-04-28T05:55:32;13.87;;;7.93;;
2840;SDS011;53423;49.224;12.074;2023-04-28T05:58:01;10.13;;;8.67;;
2840;SDS011;53423;49.224;12.074;2023-04-28T06:00:31;11.27;;;8.07;;
2840;SDS011;53423;49.224;12.074;2023-04-28T06:02:59;12.73;;;8.53;;
2840;SDS011;53423;49.224;12.074;2023-04-28T06:05:27;9.63;;;8.17;;
2840;SDS011;53423;49.224;12.074;2023-04-28T06:07:56;10.20;;;8.10;;
2840;SDS011;53423;49.224;12.074;2023-04-28T06:10:24;10.70;;;7.80;;
2840;SDS011;53423;49.224;12.074;2023-04-28T06:12:53;9.57;;;7.27;;
2840;SDS011;53423;49.224;12.074;2023-04-28T06:15:21;10.60;;;7.67;;
2840;SDS011;53423;49.224;12.074;2023-04-28T06:17:50;9.77;;;7.40;;
2840;SDS011;53423;49.224;12.074;2023-04-28T06:20:19;8.40;;;6.63;;
2840;SDS011;53423;49.224;12.074;2023-04-28T06:22:47;8.63;;;6.90;;
2840;SDS011;53423;49.224;12.074;2023-04-28T06:25:15;9.03;;;6.43;;
2840;SDS011;53423;49.224;12.074;2023-04-28T06:27:43;8.30;;;6.83;;
2840;SDS011;53423;49.224;12.074;2023-04-28T06:30:12;12.53;;;6.40;;
2840;SDS011;53423;49.224;12.074;2023-04-28T06:32:44;7.73;;;6.97;;
2840;SDS011;53423;49.224;12.074;2023-04-28T06:35:14;7.70;;;5.83;;
2840;SDS011;53423;49.224;12.074;2023-04-28T06:37:42;6.40;;;5.80;;
2840;SDS011;53423;49.224;12.074;2023-04-28T06:40:10;5.97;;;5.47;;
2840;SDS011;53423;49.224;12.074;2023-04-28T06:42:41;6.13;;;5.63;;
2840;SDS011;53423;49.224;12.074;2023-04-28T06:45:09;6.10;;;5.60;;
2840;SDS011;53423;49.224;12.074;2023-04-28T06:47:38;6.87;;;6.23;;
2840;SDS011;53423;49.224;12.074;2023-04-28T06:50:06;6.97;;;5.80;;
2840;SDS011;53423;49.224;12.074;2023-04-28T06:52:36;6.93;;;6.33;;
2840;SDS011;53423;49.224;12.074;2023-04-28T06:55:05;8.60;;;6.33;;
2840;SDS011;53423;49.224;12.074;2023-04-28T06:57:34;8.67;;;6.97;;
2840;SDS011;53423;49.224;12.074;2023-04-28T07:00:03;9.37;;;7.23;;
2840;SDS011;53423;49.224;12.074;2023-04-28T07:02:33;8.07;;;7.37;;
2840;SDS011;53423;49.224;12.074;2023-04-28T07:05:02;8.37;;;6.63;;
2840;SDS011;53423;49.224;12.074;2023-04-28T07:07:30;8.67;;;6.47;;
2840;SDS011;53423;49.224;12.074;2023-04-28T07:10:00;10.93;;;6.83;;
2840;SDS011;53423;49.224;12.074;2023-04-28T07:12:28;10.23;;;7.30;;
2840;SDS011;53423;49.224;12.074;2023-04-28T07:14:56;10.17;;;8.30;;
2840;SDS011;53423;49.224;12.074;2023-04-28T07:17:23;7.30;;;6.70;;
2840;SDS011;53423;49.224;12.074;2023-04-28T07:19:51;7.93;;;6.47;;
2840;SDS011;53423;49.224;12.074;2023-04-28T07:22:19;5.70;;;5.20;;
2840;SDS011;53423;49.224;12.074;2023-04-28T07:24:47;7.70;;;4.87;;
2840;SDS011;53423;49.224;12.074;2023-04-28T07:27:16;5.57;;;5.07;;
2840;SDS011;53423;49.224;12.074;2023-04-28T07:29:44;6.17;;;4.57;;
2840;SDS011;53423;49.224;12.074;2023-04-28T07:32:12;9.37;;;4.87;;
2840;SDS011;53423;49.224;12.074;2023-04-28T07:34:40;6.87;;;4.33;;
2840;SDS011;53423;49.224;12.074;2023-04-28T07:37:08;5.53;;;4.87;;
2840;SDS011;53423;49.224;12.074;2023-04-28T07:39:37;6.93;;;4.90;;
2840;SDS011;53423;49.224;12.074;2023-04-28T07:42:06;5.63;;;4.40;;
2840;SDS011;53423;49.224;12.074;2023-04-28T07:44:36;6.03;;;4.80;;
2840;SDS011;53423;49.224;12.074;2023-04-28T07:47:04;6.97;;;4.90;;
2840;SDS011;53423;49.224;12.074;2023-04-28T07:49:32;5.80;;;4.70;;
2840;SDS011;53423;49.224;12.074;2023-04-28T07:52:00;5.30;;;4.80;;
2840;SDS011;53423;49.224;12.074;2023-04-28T07:54:30;5.43;;;4.93;;
2840;SDS011;53423;49.224;12.074;2023-04-28T07:57:02;5.60;;;4.50;;
2840;SDS011;53423;49.224;12.074;2023-04-28T07:59:31;5.40;;;4.40;;
2840;SDS011;53423;49.224;12.074;2023-04-28T08:02:01;5.27;;;4.77;;
2840;SDS011;53423;49.224;12.074;2023-04-28T08:04:29;5.27;;;4.77;;
2840;SDS011;53423;49.224;12.074;2023-04-28T08:06:59;6.27;;;4.97;;
2840;SDS011;53423;49.224;12.074;2023-04-28T08:09:27;5.57;;;4.97;;
2840;SDS011;53423;49.224;12.074;2023-04-28T08:11:55;5.90;;;5.23;;
2840;SDS011;53423;49.224;12.074;2023-04-28T08:14:24;5.97;;;5.47;;
2840;SDS011;53423;49.224;12.074;2023-04-28T08:16:52;6.70;;;5.27;;
2840;SDS011;53423;49.224;12.074;2023-04-28T08:19:22;6.10;;;5.10;;
2840;SDS011;53423;49.224;12.074;2023-04-28T08:21:50;7.60;;;5.43;;
2840;SDS011;53423;49.224;12.074;2023-04-28T08:24:18;6.10;;;5.60;;
2840;SDS011;53423;49.224;12.074;2023-04-28T08:26:46;6.57;;;5.87;;
2840;SDS011;53423;49.224;12.074;2023-04-28T08:29:14;6.50;;;5.83;;
2840;SDS011;53423;49.224;12.074;2023-04-28T08:31:42;6.43;;;5.70;;
2840;SDS011;53423;49.224;12.074;2023-04-28T08:34:10;6.60;;;5.90;;
2840;SDS011;53423;49.224;12.074;2023-04-28T08:36:43;6.60;;;6.10;;
2840;SDS011;53423;49.224;12.074;2023-04-28T08:39:11;7.17;;;5.97;;
2840;SDS011;53423;49.224;12.074;2023-04-28T08:41:39;6.43;;;5.83;;
2840;SDS011;53423;49.224;12.074;2023-04-28T08:44:07;7.17;;;6.47;;
2840;SDS011;53423;49.224;12.074;2023-04-28T08:46:37;8.60;;;6.60;;
2840;SDS011;53423;49.224;12.074;2023-04-28T08:49:07;6.90;;;6.17;;
2840;SDS011;53423;49.224;12.074;2023-04-28T08:51:43;7.63;;;6.43;;
2840;SDS011;53423;49.224;12.074;2023-04-28T08:54:16;6.70;;;6.10;;
2840;SDS011;53423;49.224;12.074;2023-04-28T08:56:52;9.73;;;7.23;;
2840;SDS011;53423;49.224;12.074;2023-04-28T08:59:22;7.50;;;6.80;;
2840;SDS011;53423;49.224;12.074;2023-04-28T09:01:50;8.30;;;7.50;;
2840;SDS011;53423;49.224;12.074;2023-04-28T09:04:18;8.43;;;7.27;;
2840;SDS011;53423;49.224;12.074;2023-04-28T09:06:49;8.73;;;7.83;;
2840;SDS011;53423;49.224;12.074;2023-04-28T09:09:17;8.47;;;7.67;;
2840;SDS011;53423;49.224;12.074;2023-04-28T09:11:49;8.83;;;8.03;;
2840;SDS011;53423;49.224;12.074;2023-04-28T09:14:18;8.63;;;7.73;;
2840;SDS011;53423;49.224;12.074;2023-04-28T09:16:46;8.90;;;7.97;;
2840;SDS011;53423;49.224;12.074;2023-04-28T09:19:14;8.87;;;8.07;;
2840;SDS011;53423;49.224;12.074;2023-04-28T09:21:46;8.40;;;7.53;;
2840;SDS011;53423;49.224;12.074;2023-04-28T09:24:27;8.67;;;7.80;;
2840;SDS011;53423;49.224;12.074;2023-04-28T09:26:55;9.07;;;8.17;;
2840;SDS011;53423;49.224;12.074;2023-04-28T09:29:23;9.60;;;8.60;;
2840;SDS011;53423;49.224;12.074;2023-04-28T09:31:51;9.70;;;8.80;;
2840;SDS011;53423;49.224;12.074;2023-04-28T09:34:19;8.53;;;7.73;;
2840;SDS011;53423;49.224;12.074;2023-04-28T09:36:48;9.33;;;8.30;;
2840;SDS011;53423;49.224;12.074;2023-04-28T09:39:28;9.07;;;8.27;;
2840;SDS011;53423;49.224;12.074;2023-04-28T09:41:57;8.97;;;8.17;;
2840;SDS011;53423;49.224;12.074;2023-04-28T09:44:28;8.13;;;7.33;;
2840;SDS011;53423;49.224;12.074;2023-04-28T09:46:59;8.90;;;8.00;;
2840;SDS011;53423;49.224;12.074;2023-04-28T09:49:27;9.40;;;8.47;;
2840;SDS011;53423;49.224;12.074;2023-04-28T09:51:59;9.77;;;8.87;;
2840;SDS011;53423;49.224;12.074;2023-04-28T09:54:40;9.60;;;8.73;;
2840;SDS011;53423;49.224;12.074;2023-04-28T09:57:11;9.67;;;8.67;;
2840;SDS011;53423;49.224;12.074;2023-04-28T09:59:40;9.60;;;8.63;;
2840;SDS011;53423;49.224;12.074;2023-04-28T10:02:13;10.17;;;9.20;;
2840;SDS011;53423;49.224;12.074;2023-04-28T10:05:02;9.93;;;8.60;;
2840;SDS011;53423;49.224;12.074;2023-04-28T10:07:36;9.80;;;8.33;;
2840;SDS011;53423;49.224;12.074;2023-04-28T10:10:07;9.67;;;8.57;;
2840;SDS011;53423;49.224;12.074;2023-04-28T10:12:35;10.57;;;9.00;;
2840;SDS011;53423;49.224;12.074;2023-04-28T10:15:05;9.40;;;8.50;;
2840;SDS011;53423;49.224;12.074;2023-04-28T10:17:36;9.10;;;8.20;;
2840;SDS011;53423;49.224;12.074;2023-04-28T10:20:06;9.03;;;8.13;;
2840;SDS011;53423;49.224;12.074;2023-04-28T10:22:41;10.80;;;9.13;;
2840;SDS011;53423;49.224;12.074;2023-04-28T10:25:27;9.37;;;8.37;;
2840;SDS011;53423;49.224;12.074;2023-04-28T10:27:58;9.47;;;8.57;;
2840;SDS011;53423;49.224;12.074;2023-04-28T10:30:26;11.50;;;9.50;;
2840;SDS011;53423;49.224;12.074;2023-04-28T10:35:55;9.47;;;8.73;;
2840;SDS011;53423;49.224;12.074;2023-04-28T10:38:23;11.00;;;9.50;;
2840;SDS011;53423;49.224;12.074;2023-04-28T10:40:55;9.67;;;8.87;;
2840;SDS011;53423;49.224;12.074;2023-04-28T10:43:35;10.13;;;9.20;;
2840;SDS011;53423;49.224;12.074;2023-04-28T10:46:05;9.90;;;8.90;;
2840;SDS011;53423;49.224;12.074;2023-04-28T10:48:53;9.67;;;8.70;;
2840;SDS011;53423;49.224;12.074;2023-04-28T10:51:30;9.50;;;8.70;;
2840;SDS011;53423;49.224;12.074;2023-04-28T10:54:09;9.23;;;8.43;;
2840;SDS011;53423;49.224;12.074;2023-04-28T10:59:49;9.57;;;8.67;;
2840;SDS011;53423;49.224;12.074;2023-04-28T11:05:13;9.30;;;8.50;;
2840;SDS011;53423;49.224;12.074;2023-04-28T11:11:11;8.93;;;8.13;;
2840;SDS011;53423;49.224;12.074;2023-04-28T11:13:42;9.63;;;8.67;;
2840;SDS011;53423;49.224;12.074;2023-04-28T11:16:15;9.93;;;9.03;;
2840;SDS011;53423;49.224;12.074;2023-04-28T11:18:50;9.90;;;8.90;;
2840;SDS011;53423;49.224;12.074;2023-04-28T11:21:21;9.47;;;8.67;;
2840;SDS011;53423;49.224;12.074;2023-04-28T11:23:50;9.40;;;8.60;;
2840;SDS011;53423;49.224;12.074;2023-04-28T11:26:18;9.53;;;8.73;;
2840;SDS011;53423;49.224;12.074;2023-04-28T11:28:51;9.47;;;8.63;;
2840;SDS011;53423;49.224;12.074;2023-04-28T11:31:22;9.90;;;9.00;;
2840;SDS011;53423;49.224;12.074;2023-04-28T11:33:53;9.27;;;8.47;;
2840;SDS011;53423;49.224;12.074;2023-04-28T11:36:27;9.20;;;8.23;;
2840;SDS011;53423;49.224;12.074;2023-04-28T11:39:01;8.73;;;8.00;;
2840;SDS011;53423;49.224;12.074;2023-04-28T11:41:33;10.40;;;9.17;;
2840;SDS011;53423;49.224;12.074;2023-04-28T11:44:09;10.40;;;9.50;;
2840;SDS011;53423;49.224;12.074;2023-04-28T11:46:45;10.17;;;9.27;;
2840;SDS011;53423;49.224;12.074;2023-04-28T11:49:16;9.73;;;8.67;;
2840;SDS011;53423;49.224;12.074;2023-04-28T11:51:45;9.50;;;8.60;;
2840;SDS011;53423;49.224;12.074;2023-04-28T11:54:19;9.03;;;8.33;;
2840;SDS011;53423;49.224;12.074;2023-04-28T11:56:48;9.13;;;8.33;;
2840;SDS011;53423;49.224;12.074;2023-04-28T11:59:18;9.27;;;8.47;;
2840;SDS011;53423;49.224;12.074;2023-04-28T12:01:51;9.53;;;8.73;;
2840;SDS011;53423;49.224;12.074;2023-04-28T12:04:27;8.70;;;7.80;;
2840;SDS011;53423;49.224;12.074;2023-04-28T12:06:57;9.07;;;8.27;;
2840;SDS011;53423;49.224;12.074;2023-04-28T12:09:26;9.93;;;9.03;;
2840;SDS011;53423;49.224;12.074;2023-04-28T12:11:54;10.23;;;9.23;;
2840;SDS011;53423;49.224;12.074;2023-04-28T12:14:24;10.93;;;9.83;;
2840;SDS011;53423;49.224;12.074;2023-04-28T12:16:52;10.43;;;9.53;;
2840;SDS011;53423;49.224;12.074;2023-04-28T12:19:20;10.50;;;9.57;;
2840;SDS011;53423;49.224;12.074;2023-04-28T12:21:59;10.67;;;9.57;;
2840;SDS011;53423;49.224;12.074;2023-04-28T12:24:28;10.50;;;9.60;;
2840;SDS011;53423;49.224;12.074;2023-04-28T12:27:15;10.93;;;9.83;;
2840;SDS011;53423;49.224;12.074;2023-04-28T12:29:48;10.67;;;9.80;;
2840;SDS011;53423;49.224;12.074;2023-04-28T12:32:16;10.73;;;9.73;;
2840;SDS011;53423;49.224;12.074;2023-04-28T12:34:45;11.00;;;10.00;;
2840;SDS011;53423;49.224;12.074;2023-04-28T12:37:16;10.30;;;9.40;;
2840;SDS011;53423;49.224;12.074;2023-04-28T12:39:44;10.53;;;9.43;;
2840;SDS011;53423;49.224;12.074;2023-04-28T12:42:12;9.77;;;8.97;;
2840;SDS011;53423;49.224;12.074;2023-04-28T12:44:40;10.00;;;9.20;;
2840;SDS011;53423;49.224;12.074;2023-04-28T12:47:09;10.00;;;9.20;;
2840;SDS011;53423;49.224;12.074;2023-04-28T12:49:37;10.30;;;9.40;;
2840;SDS011;53423;49.224;12.074;2023-04-28T12:52:05;10.47;;;9.57;;
2840;SDS011;53423;49.224;12.074;2023-04-28T12:54:33;11.10;;;10.10;;
2840;SDS011;53423;49.224;12.074;2023-04-28T12:57:02;10.30;;;9.40;;
2840;SDS011;53423;49.224;12.074;2023-04-28T12:59:30;10.20;;;9.30;;
2840;SDS011;53423;49.224;12.074;2023-04-28T13:01:58;11.57;;;10.57;;
2840;SDS011;53423;49.224;12.074;2023-04-28T13:04:28;10.57;;;9.63;;
2840;SDS011;53423;49.224;12.074;2023-04-28T13:06:57;10.73;;;9.83;;
2840;SDS011;53423;49.224;12.074;2023-04-28T13:09:25;10.53;;;9.47;;
2840;SDS011;53423;49.224;12.074;2023-04-28T13:11:53;11.40;;;10.40;;
2840;SDS011;53423;49.224;12.074;2023-04-28T13:14:21;10.90;;;9.87;;
2840;SDS011;53423;49.224;12.074;2023-04-28T13:16:51;11.30;;;10.30;;
2840;SDS011;53423;49.224;12.074;2023-04-28T13:19:19;9.73;;;8.93;;
2840;SDS011;53423;49.224;12.074;2023-04-28T13:21:48;10.27;;;9.37;;
2840;SDS011;53423;49.224;12.074;2023-04-28T13:24:17;10.00;;;9.20;;
2840;SDS011;53423;49.224;12.074;2023-04-28T13:26:45;10.77;;;9.70;;
2840;SDS011;53423;49.224;12.074;2023-04-28T13:29:13;10.20;;;9.30;;
2840;SDS011;53423;49.224;12.074;2023-04-28T13:31:41;10.13;;;9.13;;
2840;SDS011;53423;49.224;12.074;2023-04-28T13:34:09;10.80;;;9.90;;
2840;SDS011;53423;49.224;12.074;2023-04-28T13:36:41;10.23;;;9.10;;
2840;SDS011;53423;49.224;12.074;2023-04-28T13:39:11;9.83;;;8.93;;
2840;SDS011;53423;49.224;12.074;2023-04-28T13:41:40;9.90;;;9.10;;
2840;SDS011;53423;49.224;12.074;2023-04-28T13:44:08;10.40;;;9.40;;
2840;SDS011;53423;49.224;12.074;2023-04-28T13:46:36;9.90;;;9.10;;
2840;SDS011;53423;49.224;12.074;2023-04-28T13:49:04;9.97;;;9.07;;
2840;SDS011;53423;49.224;12.074;2023-04-28T13:51:32;10.47;;;9.47;;
2840;SDS011;53423;49.224;12.074;2023-04-28T13:54:00;10.00;;;9.10;;
2840;SDS011;53423;49.224;12.074;2023-04-28T13:56:31;10.00;;;9.17;;
2840;SDS011;53423;49.224;12.074;2023-04-28T13:58:59;10.60;;;9.50;;
2840;SDS011;53423;49.224;12.074;2023-04-28T14:01:27;9.80;;;9.00;;
2840;SDS011;53423;49.224;12.074;2023-04-28T14:03:55;9.73;;;8.93;;
2840;SDS011;53423;49.224;12.074;2023-04-28T14:06:24;10.23;;;9.43;;
2840;SDS011;53423;49.224;12.074;2023-04-28T14:08:53;10.87;;;9.97;;
2840;SDS011;53423;49.224;12.074;2023-04-28T14:11:21;11.33;;;10.43;;
2840;SDS011;53423;49.224;12.074;2023-04-28T14:13:50;11.77;;;10.70;;
2840;SDS011;53423;49.224;12.074;2023-04-28T14:16:18;9.90;;;9.03;;
2840;SDS011;53423;49.224;12.074;2023-04-28T14:18:46;10.37;;;9.47;;
2840;SDS011;53423;49.224;12.074;2023-04-28T14:21:15;10.60;;;9.70;;
2840;SDS011;53423;49.224;12.074;2023-04-28T14:23:42;10.53;;;9.63;;
2840;SDS011;53423;49.224;12.074;2023-04-28T14:26:11;10.43;;;9.63;;
2840;SDS011;53423;49.224;12.074;2023-04-28T14:28:39;12.20;;;11.00;;
2840;SDS011;53423;49.224;12.074;2023-04-28T14:31:08;11.43;;;10.43;;
2840;SDS011;53423;49.224;12.074;2023-04-28T14:33:36;11.60;;;10.60;;
2840;SDS011;53423;49.224;12.074;2023-04-28T14:36:04;11.53;;;10.63;;
2840;SDS011;53423;49.224;12.074;2023-04-28T14:38:32;12.57;;;11.37;;
2840;SDS011;53423;49.224;12.074;2023-04-28T14:41:00;12.60;;;11.50;;
2840;SDS011;53423;49.224;12.074;2023-04-28T14:43:28;12.07;;;11.03;;
2840;SDS011;53423;49.224;12.074;2023-04-28T14:45:56;12.47;;;11.37;;
2840;SDS011;53423;49.224;12.074;2023-04-28T14:48:25;12.60;;;11.40;;
2840;SDS011;53423;49.224;12.074;2023-04-28T14:50:53;12.17;;;11.07;;
2840;SDS011;53423;49.224;12.074;2023-04-28T14:53:21;12.83;;;11.77;;
2840;SDS011;53423;49.224;12.074;2023-04-28T14:55:50;12.40;;;11.30;;
2840;SDS011;53423;49.224;12.074;2023-04-28T14:58:19;12.60;;;11.53;;
2840;SDS011;53423;49.224;12.074;2023-04-28T15:00:47;13.03;;;11.87;;
2840;SDS011;53423;49.224;12.074;2023-04-28T15:03:16;13.40;;;12.30;;
2840;SDS011;53423;49.224;12.074;2023-04-28T15:05:46;13.13;;;12.03;;
2840;SDS011;53423;49.224;12.074;2023-04-28T15:08:15;13.10;;;12.00;;
2840;SDS011;53423;49.224;12.074;2023-04-28T15:10:43;12.60;;;11.60;;